sensor_id;sensor_type;location;lat;lon;timestamp;P1;durP1;ratioP1;P2;durP2;ratioP2
9496;SDS011;4786;51.270;4.456;2022-09-13T00:01:31;4.15;;;3.47;;
9496;SDS011;4786;51.270;4.456;2022-09-13T00:03:57;6.28;;;3.70;;
9496;SDS011;4786;51.270;4.456;2022-09-13T00:06:23;3.80;;;3.40;;
9496;SDS011;4786;51.270;4.456;2022-09-13T00:08:50;4.03;;;3.55;;
9496;SDS011;4786;51.270;4.456;2022-09-13T00:11:24;7.95;;;3.70;;
9496;SDS011;4786;51.270;4.456;2022-09-13T00:13:51;4.35;;;3.30;;
9496;SDS011;4786;51.270;4.456;2022-09-13T00:16:19;7.68;;;3.70;;
9496;SDS011;4786;51.270;4.456;2022-09-13T00:18:46;3.43;;;3.13;;
9496;SDS011;4786;51.270;4.456;2022-09-13T00:21:13;3.88;;;3.47;;
9496;SDS011;4786;51.270;4.456;2022-09-13T00:23:48;5.03;;;3.85;;
9496;SDS011;4786;51.270;4.456;2022-09-13T00:26:17;6.17;;;3.87;;
9496;SDS011;4786;51.270;4.456;2022-09-13T00:28:49;4.75;;;3.45;;
9496;SDS011;4786;51.270;4.456;2022-09-13T00:31:16;4.72;;;3.60;;
9496;SDS011;4786;51.270;4.456;2022-09-13T00:33:43;5.63;;;3.50;;
9496;SDS011;4786;51.270;4.456;2022-09-13T00:36:09;4.27;;;3.47;;
9496;SDS011;4786;51.270;4.456;2022-09-13T00:38:37;5.00;;;3.90;;
9496;SDS011;4786;51.270;4.456;2022-09-13T00:41:05;4.80;;;3.63;;
9496;SDS011;4786;51.270;4.456;2022-09-13T00:46:20;5.25;;;3.83;;
9496;SDS011;4786;51.270;4.456;2022-09-13T00:48:52;4.90;;;3.75;;
9496;SDS011;4786;51.270;4.456;2022-09-13T00:51:22;6.43;;;4.07;;
9496;SDS011;4786;51.270;4.456;2022-09-13T00:53:49;5.13;;;3.70;;
9496;SDS011;4786;51.270;4.456;2022-09-13T00:56:19;5.40;;;3.50;;
9496;SDS011;4786;51.270;4.456;2022-09-13T00:59:09;4.65;;;3.75;;
9496;SDS011;4786;51.270;4.456;2022-09-13T01:01:41;7.38;;;3.72;;
9496;SDS011;4786;51.270;4.456;2022-09-13T01:04:12;5.40;;;4.20;;
9496;SDS011;4786;51.270;4.456;2022-09-13T01:06:39;5.07;;;3.93;;
9496;SDS011;4786;51.270;4.456;2022-09-13T01:09:07;4.72;;;3.95;;
9496;SDS011;4786;51.270;4.456;2022-09-13T01:11:41;5.88;;;4.38;;
9496;SDS011;4786;51.270;4.456;2022-09-13T01:14:13;5.40;;;3.93;;
9496;SDS011;4786;51.270;4.456;2022-09-13T01:16:39;4.50;;;4.10;;
9496;SDS011;4786;51.270;4.456;2022-09-13T01:19:05;4.90;;;3.92;;
9496;SDS011;4786;51.270;4.456;2022-09-13T01:36:02;4.13;;;3.47;;
9496;SDS011;4786;51.270;4.456;2022-09-13T01:38:53;5.43;;;3.83;;
9496;SDS011;4786;51.270;4.456;2022-09-13T01:52:40;4.22;;;3.58;;
9496;SDS011;4786;51.270;4.456;2022-09-13T02:00:50;4.27;;;3.83;;
9496;SDS011;4786;51.270;4.456;2022-09-13T02:03:27;6.10;;;4.00;;
9496;SDS011;4786;51.270;4.456;2022-09-13T02:05:59;4.27;;;3.63;;
9496;SDS011;4786;51.270;4.456;2022-09-13T02:08:34;3.67;;;3.38;;
9496;SDS011;4786;51.270;4.456;2022-09-13T02:11:11;5.45;;;3.65;;
9496;SDS011;4786;51.270;4.456;2022-09-13T02:13:42;6.00;;;3.97;;
9496;SDS011;4786;51.270;4.456;2022-09-13T02:18:57;4.07;;;3.50;;
9496;SDS011;4786;51.270;4.456;2022-09-13T02:21:28;4.13;;;3.53;;
9496;SDS011;4786;51.270;4.456;2022-09-13T02:24:01;3.88;;;3.58;;
9496;SDS011;4786;51.270;4.456;2022-09-13T02:26:29;4.03;;;3.60;;
9496;SDS011;4786;51.270;4.456;2022-09-13T02:28:59;4.18;;;3.78;;
9496;SDS011;4786;51.270;4.456;2022-09-13T02:31:38;7.27;;;4.17;;
9496;SDS011;4786;51.270;4.456;2022-09-13T02:34:11;5.20;;;4.00;;
9496;SDS011;4786;51.270;4.456;2022-09-13T02:36:42;6.37;;;4.07;;
9496;SDS011;4786;51.270;4.456;2022-09-13T02:39:17;4.13;;;3.73;;
9496;SDS011;4786;51.270;4.456;2022-09-13T02:52:21;4.53;;;3.60;;
9496;SDS011;4786;51.270;4.456;2022-09-13T02:55:07;4.25;;;3.85;;
9496;SDS011;4786;51.270;4.456;2022-09-13T02:57:44;4.95;;;3.80;;
9496;SDS011;4786;51.270;4.456;2022-09-13T03:00:30;4.30;;;3.90;;
9496;SDS011;4786;51.270;4.456;2022-09-13T03:02:57;4.37;;;3.97;;
9496;SDS011;4786;51.270;4.456;2022-09-13T03:05:27;4.55;;;3.50;;
9496;SDS011;4786;51.270;4.456;2022-09-13T03:07:53;4.03;;;3.37;;
9496;SDS011;4786;51.270;4.456;2022-09-13T03:10:19;7.13;;;3.80;;
9496;SDS011;4786;51.270;4.456;2022-09-13T03:21:47;4.03;;;3.67;;
9496;SDS011;4786;51.270;4.456;2022-09-13T03:24:41;4.70;;;4.05;;
9496;SDS011;4786;51.270;4.456;2022-09-13T03:29:52;5.67;;;3.83;;
9496;SDS011;4786;51.270;4.456;2022-09-13T03:32:47;6.20;;;4.00;;
9496;SDS011;4786;51.270;4.456;2022-09-13T03:35:40;4.77;;;3.80;;
9496;SDS011;4786;51.270;4.456;2022-09-13T03:45:32;5.87;;;3.60;;
9496;SDS011;4786;51.270;4.456;2022-09-13T03:48:03;6.60;;;4.00;;
9496;SDS011;4786;51.270;4.456;2022-09-13T03:50:30;5.87;;;4.20;;
9496;SDS011;4786;51.270;4.456;2022-09-13T03:53:01;5.87;;;4.43;;
9496;SDS011;4786;51.270;4.456;2022-09-13T03:55:31;6.60;;;4.40;;
9496;SDS011;4786;51.270;4.456;2022-09-13T03:57:59;6.00;;;3.80;;
9496;SDS011;4786;51.270;4.456;2022-09-13T04:00:25;4.60;;;4.20;;
9496;SDS011;4786;51.270;4.456;2022-09-13T04:02:51;4.30;;;3.90;;
9496;SDS011;4786;51.270;4.456;2022-09-13T04:05:17;4.50;;;4.10;;
9496;SDS011;4786;51.270;4.456;2022-09-13T04:07:42;3.93;;;3.60;;
9496;SDS011;4786;51.270;4.456;2022-09-13T04:10:08;5.73;;;4.53;;
9496;SDS011;4786;51.270;4.456;2022-09-13T04:12:34;7.27;;;6.53;;
9496;SDS011;4786;51.270;4.456;2022-09-13T04:15:00;7.33;;;6.40;;
9496;SDS011;4786;51.270;4.456;2022-09-13T04:17:26;8.07;;;4.80;;
9496;SDS011;4786;51.270;4.456;2022-09-13T04:19:52;4.90;;;4.40;;
9496;SDS011;4786;51.270;4.456;2022-09-13T04:22:18;4.50;;;4.10;;
9496;SDS011;4786;51.270;4.456;2022-09-13T04:24:44;5.90;;;4.10;;
9496;SDS011;4786;51.270;4.456;2022-09-13T04:27:10;5.13;;;4.63;;
9496;SDS011;4786;51.270;4.456;2022-09-13T04:29:36;5.90;;;4.03;;
9496;SDS011;4786;51.270;4.456;2022-09-13T04:32:02;5.43;;;4.37;;
9496;SDS011;4786;51.270;4.456;2022-09-13T04:34:28;4.93;;;3.73;;
9496;SDS011;4786;51.270;4.456;2022-09-13T04:36:54;4.87;;;4.07;;
9496;SDS011;4786;51.270;4.456;2022-09-13T04:39:20;4.30;;;3.90;;
9496;SDS011;4786;51.270;4.456;2022-09-13T04:41:47;5.73;;;4.13;;
9496;SDS011;4786;51.270;4.456;2022-09-13T04:44:14;5.17;;;4.67;;
9496;SDS011;4786;51.270;4.456;2022-09-13T04:46:41;4.10;;;3.70;;
9496;SDS011;4786;51.270;4.456;2022-09-13T04:49:08;5.90;;;3.83;;
9496;SDS011;4786;51.270;4.456;2022-09-13T04:51:34;6.43;;;4.10;;
9496;SDS011;4786;51.270;4.456;2022-09-13T04:54:00;5.80;;;4.13;;
9496;SDS011;4786;51.270;4.456;2022-09-13T04:56:26;6.87;;;4.00;;
9496;SDS011;4786;51.270;4.456;2022-09-13T04:58:53;5.57;;;3.90;;
9496;SDS011;4786;51.270;4.456;2022-09-13T05:01:20;7.13;;;3.87;;
9496;SDS011;4786;51.270;4.456;2022-09-13T05:03:49;4.40;;;3.83;;
9496;SDS011;4786;51.270;4.456;2022-09-13T05:06:16;4.00;;;3.70;;
9496;SDS011;4786;51.270;4.456;2022-09-13T05:08:42;6.30;;;4.03;;
9496;SDS011;4786;51.270;4.456;2022-09-13T05:11:09;5.20;;;3.83;;
9496;SDS011;4786;51.270;4.456;2022-09-13T05:13:35;4.85;;;3.70;;
9496;SDS011;4786;51.270;4.456;2022-09-13T05:16:03;7.97;;;4.23;;
9496;SDS011;4786;51.270;4.456;2022-09-13T05:18:31;4.13;;;3.63;;
9496;SDS011;4786;51.270;4.456;2022-09-13T05:21:00;5.53;;;3.80;;
9496;SDS011;4786;51.270;4.456;2022-09-13T05:23:27;7.37;;;4.13;;
9496;SDS011;4786;51.270;4.456;2022-09-13T05:25:55;5.03;;;4.10;;
9496;SDS011;4786;51.270;4.456;2022-09-13T05:28:31;6.67;;;4.00;;
9496;SDS011;4786;51.270;4.456;2022-09-13T05:33:30;5.57;;;3.90;;
9496;SDS011;4786;51.270;4.456;2022-09-13T05:35:57;4.00;;;3.50;;
9496;SDS011;4786;51.270;4.456;2022-09-13T05:38:23;6.27;;;4.07;;
9496;SDS011;4786;51.270;4.456;2022-09-13T05:40:53;5.45;;;3.67;;
9496;SDS011;4786;51.270;4.456;2022-09-13T05:43:26;5.73;;;4.30;;
9496;SDS011;4786;51.270;4.456;2022-09-13T05:46:26;5.40;;;4.00;;
9496;SDS011;4786;51.270;4.456;2022-09-13T05:48:46;7.23;;;4.00;;
9496;SDS011;4786;51.270;4.456;2022-09-13T05:53:43;6.53;;;4.30;;
9496;SDS011;4786;51.270;4.456;2022-09-13T05:56:14;4.63;;;4.23;;
9496;SDS011;4786;51.270;4.456;2022-09-13T05:58:41;6.13;;;4.13;;
9496;SDS011;4786;51.270;4.456;2022-09-13T06:01:09;5.15;;;3.75;;
9496;SDS011;4786;51.270;4.456;2022-09-13T06:03:35;5.00;;;3.73;;
9496;SDS011;4786;51.270;4.456;2022-09-13T06:06:02;7.67;;;3.70;;
9496;SDS011;4786;51.270;4.456;2022-09-13T06:08:29;4.50;;;3.40;;
9496;SDS011;4786;51.270;4.456;2022-09-13T06:10:57;4.72;;;3.47;;
9496;SDS011;4786;51.270;4.456;2022-09-13T06:13:28;4.38;;;3.88;;
9496;SDS011;4786;51.270;4.456;2022-09-13T06:15:56;4.03;;;3.53;;
9496;SDS011;4786;51.270;4.456;2022-09-13T06:18:22;5.73;;;3.70;;
9496;SDS011;4786;51.270;4.456;2022-09-13T06:20:49;5.60;;;3.70;;
9496;SDS011;4786;51.270;4.456;2022-09-13T06:23:16;5.03;;;3.93;;
9496;SDS011;4786;51.270;4.456;2022-09-13T06:25:42;4.43;;;4.00;;
9496;SDS011;4786;51.270;4.456;2022-09-13T06:28:08;5.20;;;4.00;;
9496;SDS011;4786;51.270;4.456;2022-09-13T06:30:35;5.97;;;4.07;;
9496;SDS011;4786;51.270;4.456;2022-09-13T06:33:00;5.38;;;3.92;;
9496;SDS011;4786;51.270;4.456;2022-09-13T06:35:27;9.63;;;3.27;;
9496;SDS011;4786;51.270;4.456;2022-09-13T06:37:56;6.47;;;4.20;;
9496;SDS011;4786;51.270;4.456;2022-09-13T06:40:22;5.70;;;3.90;;
9496;SDS011;4786;51.270;4.456;2022-09-13T06:42:49;6.50;;;3.90;;
9496;SDS011;4786;51.270;4.456;2022-09-13T06:45:14;7.00;;;3.88;;
9496;SDS011;4786;51.270;4.456;2022-09-13T06:47:40;4.07;;;3.47;;
9496;SDS011;4786;51.270;4.456;2022-09-13T06:50:06;4.28;;;3.58;;
9496;SDS011;4786;51.270;4.456;2022-09-13T06:52:34;4.15;;;3.55;;
9496;SDS011;4786;51.270;4.456;2022-09-13T06:55:07;4.97;;;3.97;;
9496;SDS011;4786;51.270;4.456;2022-09-13T06:57:34;4.38;;;3.60;;
9496;SDS011;4786;51.270;4.456;2022-09-13T06:59:59;6.65;;;4.00;;
9496;SDS011;4786;51.270;4.456;2022-09-13T07:02:25;4.60;;;3.97;;
9496;SDS011;4786;51.270;4.456;2022-09-13T07:04:51;5.15;;;4.13;;
9496;SDS011;4786;51.270;4.456;2022-09-13T07:07:17;6.03;;;3.85;;
9496;SDS011;4786;51.270;4.456;2022-09-13T07:09:43;4.28;;;3.75;;
9496;SDS011;4786;51.270;4.456;2022-09-13T07:12:09;5.53;;;3.90;;
9496;SDS011;4786;51.270;4.456;2022-09-13T07:14:35;6.85;;;3.92;;
9496;SDS011;4786;51.270;4.456;2022-09-13T07:17:02;5.13;;;3.90;;
9496;SDS011;4786;51.270;4.456;2022-09-13T07:19:28;8.80;;;4.28;;
9496;SDS011;4786;51.270;4.456;2022-09-13T07:21:56;6.25;;;4.13;;
9496;SDS011;4786;51.270;4.456;2022-09-13T07:24:22;4.65;;;4.25;;
9496;SDS011;4786;51.270;4.456;2022-09-13T07:26:48;8.77;;;4.13;;
9496;SDS011;4786;51.270;4.456;2022-09-13T07:29:15;6.60;;;5.05;;
9496;SDS011;4786;51.270;4.456;2022-09-13T07:31:44;7.40;;;4.78;;
9496;SDS011;4786;51.270;4.456;2022-09-13T07:34:15;6.90;;;5.03;;
9496;SDS011;4786;51.270;4.456;2022-09-13T07:36:42;9.85;;;5.85;;
9496;SDS011;4786;51.270;4.456;2022-09-13T07:39:15;7.75;;;6.72;;
9496;SDS011;4786;51.270;4.456;2022-09-13T07:41:42;9.75;;;6.95;;
9496;SDS011;4786;51.270;4.456;2022-09-13T07:44:09;7.65;;;6.43;;
9496;SDS011;4786;51.270;4.456;2022-09-13T07:46:36;6.88;;;6.28;;
9496;SDS011;4786;51.270;4.456;2022-09-13T07:49:04;9.48;;;6.57;;
9496;SDS011;4786;51.270;4.456;2022-09-13T07:51:31;8.70;;;7.50;;
9496;SDS011;4786;51.270;4.456;2022-09-13T07:53:59;10.00;;;7.63;;
9496;SDS011;4786;51.270;4.456;2022-09-13T07:56:31;11.20;;;7.65;;
9496;SDS011;4786;51.270;4.456;2022-09-13T07:58:59;11.50;;;7.38;;
9496;SDS011;4786;51.270;4.456;2022-09-13T08:01:26;8.95;;;7.63;;
9496;SDS011;4786;51.270;4.456;2022-09-13T08:03:58;10.13;;;6.95;;
9496;SDS011;4786;51.270;4.456;2022-09-13T08:06:28;8.40;;;5.72;;
9496;SDS011;4786;51.270;4.456;2022-09-13T08:08:56;11.30;;;8.25;;
9496;SDS011;4786;51.270;4.456;2022-09-13T08:11:23;8.32;;;7.32;;
9496;SDS011;4786;51.270;4.456;2022-09-13T08:13:54;10.55;;;8.32;;
9496;SDS011;4786;51.270;4.456;2022-09-13T08:16:20;8.95;;;8.00;;
9496;SDS011;4786;51.270;4.456;2022-09-13T08:18:51;12.90;;;8.35;;
9496;SDS011;4786;51.270;4.456;2022-09-13T08:21:19;10.90;;;9.23;;
9496;SDS011;4786;51.270;4.456;2022-09-13T08:23:46;11.73;;;9.55;;
9496;SDS011;4786;51.270;4.456;2022-09-13T08:26:12;11.93;;;9.10;;
9496;SDS011;4786;51.270;4.456;2022-09-13T08:28:39;10.35;;;9.32;;
9496;SDS011;4786;51.270;4.456;2022-09-13T08:31:13;10.98;;;9.40;;
9496;SDS011;4786;51.270;4.456;2022-09-13T08:33:44;8.98;;;7.80;;
9496;SDS011;4786;51.270;4.456;2022-09-13T08:36:11;11.13;;;7.55;;
9496;SDS011;4786;51.270;4.456;2022-09-13T08:38:37;11.48;;;8.55;;
9496;SDS011;4786;51.270;4.456;2022-09-13T08:41:51;9.05;;;8.00;;
9496;SDS011;4786;51.270;4.456;2022-09-13T08:46:26;9.02;;;8.23;;
9496;SDS011;4786;51.270;4.456;2022-09-13T08:48:59;9.60;;;7.30;;
9496;SDS011;4786;51.270;4.456;2022-09-13T08:54:18;8.07;;;7.28;;
9496;SDS011;4786;51.270;4.456;2022-09-13T08:56:48;7.90;;;7.13;;
9496;SDS011;4786;51.270;4.456;2022-09-13T09:06:53;7.40;;;5.68;;
9496;SDS011;4786;51.270;4.456;2022-09-13T09:09:30;8.38;;;6.40;;
9496;SDS011;4786;51.270;4.456;2022-09-13T09:14:43;8.13;;;5.50;;
9496;SDS011;4786;51.270;4.456;2022-09-13T09:17:21;5.15;;;4.70;;
9496;SDS011;4786;51.270;4.456;2022-09-13T09:20:06;6.57;;;5.10;;
9496;SDS011;4786;51.270;4.456;2022-09-13T09:22:50;5.75;;;5.25;;
9496;SDS011;4786;51.270;4.456;2022-09-13T09:25:19;5.70;;;4.85;;
9496;SDS011;4786;51.270;4.456;2022-09-13T09:27:50;6.13;;;4.47;;
9496;SDS011;4786;51.270;4.456;2022-09-13T09:30:18;5.03;;;4.50;;
9496;SDS011;4786;51.270;4.456;2022-09-13T09:38:39;4.13;;;3.72;;
9496;SDS011;4786;51.270;4.456;2022-09-13T09:41:24;6.10;;;4.63;;
9496;SDS011;4786;51.270;4.456;2022-09-13T09:43:58;5.97;;;5.13;;
9496;SDS011;4786;51.270;4.456;2022-09-13T09:46:27;7.43;;;4.10;;
9496;SDS011;4786;51.270;4.456;2022-09-13T09:49:01;4.97;;;3.83;;
9496;SDS011;4786;51.270;4.456;2022-09-13T09:52:03;4.43;;;4.03;;
9496;SDS011;4786;51.270;4.456;2022-09-13T09:54:33;6.68;;;4.38;;
9496;SDS011;4786;51.270;4.456;2022-09-13T09:57:00;3.42;;;3.10;;
9496;SDS011;4786;51.270;4.456;2022-09-13T09:59:29;4.30;;;3.83;;
9496;SDS011;4786;51.270;4.456;2022-09-13T10:02:00;5.85;;;4.25;;
9496;SDS011;4786;51.270;4.456;2022-09-13T10:04:38;5.03;;;4.38;;
9496;SDS011;4786;51.270;4.456;2022-09-13T10:07:09;4.95;;;3.80;;
9496;SDS011;4786;51.270;4.456;2022-09-13T10:09:57;4.15;;;3.35;;
9496;SDS011;4786;51.270;4.456;2022-09-13T10:12:24;4.55;;;3.85;;
9496;SDS011;4786;51.270;4.456;2022-09-13T10:14:52;3.78;;;3.47;;
9496;SDS011;4786;51.270;4.456;2022-09-13T10:17:29;8.40;;;4.10;;
9496;SDS011;4786;51.270;4.456;2022-09-13T10:19:56;8.07;;;4.85;;
9496;SDS011;4786;51.270;4.456;2022-09-13T10:22:23;6.38;;;3.47;;
9496;SDS011;4786;51.270;4.456;2022-09-13T10:24:50;6.97;;;5.60;;
9496;SDS011;4786;51.270;4.456;2022-09-13T10:30:01;7.45;;;5.88;;
9496;SDS011;4786;51.270;4.456;2022-09-13T10:32:28;7.55;;;6.85;;
9496;SDS011;4786;51.270;4.456;2022-09-13T10:34:55;8.52;;;7.60;;
9496;SDS011;4786;51.270;4.456;2022-09-13T10:37:29;7.72;;;7.03;;
9496;SDS011;4786;51.270;4.456;2022-09-13T10:40:06;8.73;;;7.45;;
9496;SDS011;4786;51.270;4.456;2022-09-13T10:42:41;10.32;;;6.95;;
9496;SDS011;4786;51.270;4.456;2022-09-13T10:45:21;8.40;;;7.60;;
9496;SDS011;4786;51.270;4.456;2022-09-13T10:47:50;11.00;;;9.90;;
9496;SDS011;4786;51.270;4.456;2022-09-13T10:50:23;8.85;;;7.57;;
9496;SDS011;4786;51.270;4.456;2022-09-13T10:52:51;11.43;;;9.45;;
9496;SDS011;4786;51.270;4.456;2022-09-13T10:57:49;11.23;;;9.40;;
9496;SDS011;4786;51.270;4.456;2022-09-13T11:09:00;10.18;;;7.60;;
9496;SDS011;4786;51.270;4.456;2022-09-13T11:11:55;6.95;;;6.25;;
9496;SDS011;4786;51.270;4.456;2022-09-13T11:26:03;9.98;;;7.88;;
9496;SDS011;4786;51.270;4.456;2022-09-13T11:48:39;6.25;;;5.65;;
9496;SDS011;4786;51.270;4.456;2022-09-13T11:56:49;6.80;;;6.13;;
9496;SDS011;4786;51.270;4.456;2022-09-13T12:02:01;8.35;;;6.80;;
9496;SDS011;4786;51.270;4.456;2022-09-13T12:04:37;7.63;;;6.00;;
9496;SDS011;4786;51.270;4.456;2022-09-13T12:07:24;7.18;;;5.43;;
9496;SDS011;4786;51.270;4.456;2022-09-13T12:10:00;7.60;;;6.80;;
9496;SDS011;4786;51.270;4.456;2022-09-13T12:12:31;7.03;;;5.60;;
9496;SDS011;4786;51.270;4.456;2022-09-13T12:15:07;8.05;;;6.25;;
9496;SDS011;4786;51.270;4.456;2022-09-13T12:17:41;5.95;;;5.20;;
9496;SDS011;4786;51.270;4.456;2022-09-13T12:20:24;7.20;;;6.47;;
9496;SDS011;4786;51.270;4.456;2022-09-13T12:22:53;7.20;;;5.47;;
9496;SDS011;4786;51.270;4.456;2022-09-13T12:25:23;9.02;;;5.07;;
9496;SDS011;4786;51.270;4.456;2022-09-13T12:27:58;9.70;;;4.57;;
9496;SDS011;4786;51.270;4.456;2022-09-13T12:30:36;5.03;;;4.07;;
9496;SDS011;4786;51.270;4.456;2022-09-13T12:33:10;7.30;;;5.60;;
9496;SDS011;4786;51.270;4.456;2022-09-13T12:46:56;3.88;;;3.58;;
9496;SDS011;4786;51.270;4.456;2022-09-13T12:52:05;4.00;;;3.45;;
9496;SDS011;4786;51.270;4.456;2022-09-13T13:09:50;6.18;;;4.60;;
9496;SDS011;4786;51.270;4.456;2022-09-13T13:12:55;5.90;;;3.58;;
9496;SDS011;4786;51.270;4.456;2022-09-13T13:15:02;7.55;;;4.53;;
9496;SDS011;4786;51.270;4.456;2022-09-13T13:23:13;4.03;;;3.45;;
9496;SDS011;4786;51.270;4.456;2022-09-13T13:31:41;5.65;;;4.25;;
9496;SDS011;4786;51.270;4.456;2022-09-13T13:34:30;4.78;;;4.38;;
9496;SDS011;4786;51.270;4.456;2022-09-13T13:37:41;5.25;;;3.83;;
9496;SDS011;4786;51.270;4.456;2022-09-13T13:50:14;4.97;;;3.65;;
9496;SDS011;4786;51.270;4.456;2022-09-13T13:55:29;5.00;;;4.50;;
9496;SDS011;4786;51.270;4.456;2022-09-13T13:58:02;5.65;;;4.63;;
9496;SDS011;4786;51.270;4.456;2022-09-13T14:00:32;7.25;;;4.38;;
9496;SDS011;4786;51.270;4.456;2022-09-13T14:09:01;4.63;;;4.20;;
9496;SDS011;4786;51.270;4.456;2022-09-13T14:15:04;4.45;;;4.00;;
9496;SDS011;4786;51.270;4.456;2022-09-13T14:17:54;4.43;;;3.78;;
9496;SDS011;4786;51.270;4.456;2022-09-13T14:21:04;7.80;;;4.97;;
9496;SDS011;4786;51.270;4.456;2022-09-13T14:23:42;8.82;;;5.53;;
9496;SDS011;4786;51.270;4.456;2022-09-13T14:26:07;10.63;;;5.32;;
9496;SDS011;4786;51.270;4.456;2022-09-13T14:28:36;6.10;;;5.50;;
9496;SDS011;4786;51.270;4.456;2022-09-13T14:31:02;8.13;;;5.60;;
9496;SDS011;4786;51.270;4.456;2022-09-13T14:33:29;8.10;;;5.20;;
9496;SDS011;4786;51.270;4.456;2022-09-13T14:36:00;7.72;;;6.22;;
9496;SDS011;4786;51.270;4.456;2022-09-13T14:38:32;6.60;;;5.10;;
9496;SDS011;4786;51.270;4.456;2022-09-13T14:41:13;7.20;;;5.55;;
9496;SDS011;4786;51.270;4.456;2022-09-13T14:43:42;5.57;;;5.07;;
9496;SDS011;4786;51.270;4.456;2022-09-13T14:46:15;5.00;;;4.60;;
9496;SDS011;4786;51.270;4.456;2022-09-13T14:53:47;5.93;;;5.32;;
9496;SDS011;4786;51.270;4.456;2022-09-13T14:56:24;5.07;;;4.68;;
9496;SDS011;4786;51.270;4.456;2022-09-13T14:58:52;7.75;;;4.90;;
9496;SDS011;4786;51.270;4.456;2022-09-13T15:01:25;5.28;;;4.53;;
9496;SDS011;4786;51.270;4.456;2022-09-13T15:03:54;8.23;;;5.50;;
9496;SDS011;4786;51.270;4.456;2022-09-13T15:09:29;5.32;;;4.82;;
9496;SDS011;4786;51.270;4.456;2022-09-13T15:11:56;5.45;;;4.95;;
9496;SDS011;4786;51.270;4.456;2022-09-13T15:14:32;6.15;;;4.70;;
9496;SDS011;4786;51.270;4.456;2022-09-13T15:22:28;5.32;;;4.82;;
9496;SDS011;4786;51.270;4.456;2022-09-13T15:24:58;5.72;;;4.43;;
9496;SDS011;4786;51.270;4.456;2022-09-13T15:27:29;4.95;;;4.30;;
9496;SDS011;4786;51.270;4.456;2022-09-13T15:30:23;4.43;;;3.97;;
9496;SDS011;4786;51.270;4.456;2022-09-13T15:33:14;5.75;;;4.25;;
9496;SDS011;4786;51.270;4.456;2022-09-13T15:35:47;3.75;;;3.45;;
9496;SDS011;4786;51.270;4.456;2022-09-13T15:38:29;4.13;;;3.67;;
9496;SDS011;4786;51.270;4.456;2022-09-13T15:40:57;4.20;;;3.80;;
9496;SDS011;4786;51.270;4.456;2022-09-13T15:43:37;4.60;;;3.90;;
9496;SDS011;4786;51.270;4.456;2022-09-13T15:46:03;4.45;;;4.05;;
9496;SDS011;4786;51.270;4.456;2022-09-13T15:48:34;4.72;;;4.30;;
9496;SDS011;4786;51.270;4.456;2022-09-13T15:51:10;6.43;;;4.30;;
9496;SDS011;4786;51.270;4.456;2022-09-13T15:53:37;4.50;;;4.15;;
9496;SDS011;4786;51.270;4.456;2022-09-13T15:56:05;4.47;;;4.07;;
9496;SDS011;4786;51.270;4.456;2022-09-13T15:58:33;4.28;;;3.88;;
9496;SDS011;4786;51.270;4.456;2022-09-13T16:00:59;4.38;;;3.97;;
9496;SDS011;4786;51.270;4.456;2022-09-13T16:03:26;3.88;;;3.50;;
9496;SDS011;4786;51.270;4.456;2022-09-13T16:05:52;5.50;;;3.90;;
9496;SDS011;4786;51.270;4.456;2022-09-13T16:08:19;3.85;;;3.30;;
9496;SDS011;4786;51.270;4.456;2022-09-13T16:10:45;4.82;;;3.65;;
9496;SDS011;4786;51.270;4.456;2022-09-13T16:13:11;4.38;;;3.97;;
9496;SDS011;4786;51.270;4.456;2022-09-13T16:15:37;5.03;;;4.10;;
9496;SDS011;4786;51.270;4.456;2022-09-13T16:18:03;4.95;;;4.47;;
9496;SDS011;4786;51.270;4.456;2022-09-13T16:20:29;3.58;;;3.10;;
9496;SDS011;4786;51.270;4.456;2022-09-13T16:22:55;5.15;;;4.20;;
9496;SDS011;4786;51.270;4.456;2022-09-13T16:25:21;5.47;;;4.00;;
9496;SDS011;4786;51.270;4.456;2022-09-13T16:27:47;4.10;;;3.20;;
9496;SDS011;4786;51.270;4.456;2022-09-13T16:30:17;4.63;;;3.17;;
9496;SDS011;4786;51.270;4.456;2022-09-13T16:32:44;4.28;;;3.33;;
9496;SDS011;4786;51.270;4.456;2022-09-13T16:35:10;3.60;;;2.80;;
9496;SDS011;4786;51.270;4.456;2022-09-13T16:37:38;2.97;;;2.70;;
9496;SDS011;4786;51.270;4.456;2022-09-13T16:40:05;4.07;;;2.83;;
9496;SDS011;4786;51.270;4.456;2022-09-13T16:42:34;4.82;;;2.40;;
9496;SDS011;4786;51.270;4.456;2022-09-13T16:45:00;6.07;;;2.55;;
9496;SDS011;4786;51.270;4.456;2022-09-13T16:47:26;4.80;;;2.33;;
9496;SDS011;4786;51.270;4.456;2022-09-13T16:49:52;5.18;;;2.55;;
9496;SDS011;4786;51.270;4.456;2022-09-13T16:52:18;4.80;;;2.10;;
9496;SDS011;4786;51.270;4.456;2022-09-13T16:54:44;6.13;;;2.63;;
9496;SDS011;4786;51.270;4.456;2022-09-13T16:57:13;3.92;;;2.25;;
9496;SDS011;4786;51.270;4.456;2022-09-13T16:59:39;8.73;;;2.58;;
9496;SDS011;4786;51.270;4.456;2022-09-13T17:02:05;3.90;;;2.33;;
9496;SDS011;4786;51.270;4.456;2022-09-13T17:04:33;3.25;;;1.95;;
9496;SDS011;4786;51.270;4.456;2022-09-13T17:06:59;4.22;;;1.95;;
9496;SDS011;4786;51.270;4.456;2022-09-13T17:09:26;4.38;;;2.38;;
9496;SDS011;4786;51.270;4.456;2022-09-13T17:11:53;3.20;;;2.00;;
9496;SDS011;4786;51.270;4.456;2022-09-13T17:14:19;4.88;;;2.00;;
9496;SDS011;4786;51.270;4.456;2022-09-13T17:16:48;3.92;;;2.47;;
9496;SDS011;4786;51.270;4.456;2022-09-13T17:19:23;2.50;;;2.30;;
9496;SDS011;4786;51.270;4.456;2022-09-13T17:21:51;4.18;;;2.08;;
9496;SDS011;4786;51.270;4.456;2022-09-13T17:24:21;4.45;;;2.38;;
9496;SDS011;4786;51.270;4.456;2022-09-13T17:26:47;4.18;;;2.10;;
9496;SDS011;4786;51.270;4.456;2022-09-13T17:29:13;2.65;;;2.10;;
9496;SDS011;4786;51.270;4.456;2022-09-13T17:31:39;6.25;;;2.13;;
9496;SDS011;4786;51.270;4.456;2022-09-13T17:34:07;3.05;;;1.98;;
9496;SDS011;4786;51.270;4.456;2022-09-13T17:36:33;2.13;;;1.70;;
9496;SDS011;4786;51.270;4.456;2022-09-13T17:38:59;6.15;;;2.10;;
9496;SDS011;4786;51.270;4.456;2022-09-13T17:41:25;3.22;;;1.80;;
9496;SDS011;4786;51.270;4.456;2022-09-13T17:43:51;2.45;;;1.75;;
9496;SDS011;4786;51.270;4.456;2022-09-13T17:46:22;3.40;;;2.10;;
9496;SDS011;4786;51.270;4.456;2022-09-13T17:48:50;4.13;;;1.95;;
9496;SDS011;4786;51.270;4.456;2022-09-13T17:51:18;3.78;;;2.08;;
9496;SDS011;4786;51.270;4.456;2022-09-13T17:53:47;3.53;;;1.80;;
9496;SDS011;4786;51.270;4.456;2022-09-13T17:56:18;5.60;;;2.08;;
9496;SDS011;4786;51.270;4.456;2022-09-13T17:58:49;5.63;;;2.05;;
9496;SDS011;4786;51.270;4.456;2022-09-13T18:01:15;4.47;;;1.92;;
9496;SDS011;4786;51.270;4.456;2022-09-13T18:03:41;3.28;;;1.95;;
9496;SDS011;4786;51.270;4.456;2022-09-13T18:06:08;4.55;;;1.80;;
9496;SDS011;4786;51.270;4.456;2022-09-13T18:08:35;4.65;;;2.17;;
9496;SDS011;4786;51.270;4.456;2022-09-13T18:11:03;6.70;;;2.42;;
9496;SDS011;4786;51.270;4.456;2022-09-13T18:13:31;4.05;;;2.30;;
9496;SDS011;4786;51.270;4.456;2022-09-13T18:15:58;6.35;;;2.05;;
9496;SDS011;4786;51.270;4.456;2022-09-13T18:18:25;3.67;;;2.10;;
9496;SDS011;4786;51.270;4.456;2022-09-13T18:20:51;5.28;;;2.38;;
9496;SDS011;4786;51.270;4.456;2022-09-13T18:23:18;5.63;;;2.15;;
9496;SDS011;4786;51.270;4.456;2022-09-13T18:25:54;4.63;;;2.08;;
9496;SDS011;4786;51.270;4.456;2022-09-13T18:28:21;5.32;;;2.17;;
9496;SDS011;4786;51.270;4.456;2022-09-13T18:30:51;3.80;;;2.13;;
9496;SDS011;4786;51.270;4.456;2022-09-13T18:33:22;2.38;;;2.00;;
9496;SDS011;4786;51.270;4.456;2022-09-13T18:38:21;4.82;;;2.30;;
9496;SDS011;4786;51.270;4.456;2022-09-13T18:40:47;4.38;;;2.30;;
9496;SDS011;4786;51.270;4.456;2022-09-13T18:43:42;3.75;;;2.25;;
9496;SDS011;4786;51.270;4.456;2022-09-13T18:46:10;3.63;;;2.40;;
9496;SDS011;4786;51.270;4.456;2022-09-13T18:48:38;6.15;;;2.70;;
9496;SDS011;4786;51.270;4.456;2022-09-13T18:51:13;4.30;;;2.50;;
9496;SDS011;4786;51.270;4.456;2022-09-13T18:53:42;2.90;;;2.10;;
9496;SDS011;4786;51.270;4.456;2022-09-13T18:56:09;4.15;;;2.25;;
9496;SDS011;4786;51.270;4.456;2022-09-13T18:58:37;5.18;;;2.20;;
9496;SDS011;4786;51.270;4.456;2022-09-13T19:01:12;4.40;;;2.40;;
9496;SDS011;4786;51.270;4.456;2022-09-13T19:03:47;4.85;;;1.92;;
9496;SDS011;4786;51.270;4.456;2022-09-13T19:06:16;4.43;;;1.90;;
9496;SDS011;4786;51.270;4.456;2022-09-13T19:08:42;2.35;;;1.65;;
9496;SDS011;4786;51.270;4.456;2022-09-13T19:11:09;3.72;;;1.98;;
9496;SDS011;4786;51.270;4.456;2022-09-13T19:13:36;4.18;;;1.90;;
9496;SDS011;4786;51.270;4.456;2022-09-13T19:16:05;3.40;;;1.85;;
9496;SDS011;4786;51.270;4.456;2022-09-13T19:18:34;1.92;;;1.67;;
9496;SDS011;4786;51.270;4.456;2022-09-13T19:21:06;7.38;;;2.20;;